sensor_id;sensor_type;location;lat;lon;timestamp;pressure;altitude;pressure_sealevel;temperature;humidity
47636;BME280;33364;50.766;15.338;2023-02-12T00:02:15;96300.44;;;1.98;81.68
47636;BME280;33364;50.766;15.338;2023-02-12T00:04:41;96302.75;;;2.01;80.45
47636;BME280;33364;50.766;15.338;2023-02-12T00:07:07;96304.19;;;1.96;80.37
47636;BME280;33364;50.766;15.338;2023-02-12T00:09:33;96305.03;;;1.96;80.28
47636;BME280;33364;50.766;15.338;2023-02-12T00:11:58;96298.75;;;1.89;79.84
47636;BME280;33364;50.766;15.338;2023-02-12T00:14:24;96315.47;;;1.88;79.90
47636;BME280;33364;50.766;15.338;2023-02-12T00:16:50;96309.88;;;1.91;80.42
47636;BME280;33364;50.766;15.338;2023-02-12T00:19:16;96311.88;;;1.97;81.32
47636;BME280;33364;50.766;15.338;2023-02-12T00:21:41;96316.94;;;1.91;79.74
47636;BME280;33364;50.766;15.338;2023-02-12T00:24:07;96311.88;;;1.97;80.91
47636;BME280;33364;50.766;15.338;2023-02-12T00:26:34;96308.16;;;2.00;79.52
47636;BME280;33364;50.766;15.338;2023-02-12T00:29:01;96312.66;;;1.81;79.38
47636;BME280;33364;50.766;15.338;2023-02-12T00:31:28;96312.31;;;1.84;81.27
47636;BME280;33364;50.766;15.338;2023-02-12T00:33:54;96321.94;;;1.76;80.20
47636;BME280;33364;50.766;15.338;2023-02-12T00:36:22;96322.75;;;1.76;81.61
47636;BME280;33364;50.766;15.338;2023-02-12T00:38:51;96321.19;;;1.83;81.61
47636;BME280;33364;50.766;15.338;2023-02-12T00:41:17;96332.25;;;2.04;82.36
47636;BME280;33364;50.766;15.338;2023-02-12T00:43:42;96326.66;;;1.98;80.54
47636;BME280;33364;50.766;15.338;2023-02-12T00:46:08;96332.88;;;1.97;79.70
47636;BME280;33364;50.766;15.338;2023-02-12T00:48:35;96335.63;;;1.96;81.66
47636;BME280;33364;50.766;15.338;2023-02-12T00:51:01;96338.59;;;2.01;80.66
47636;BME280;33364;50.766;15.338;2023-02-12T00:53:27;96336.53;;;2.05;80.65
47636;BME280;33364;50.766;15.338;2023-02-12T00:55:53;96332.25;;;2.04;79.97
47636;BME280;33364;50.766;15.338;2023-02-12T00:58:19;96345.00;;;1.98;79.91
47636;BME280;33364;50.766;15.338;2023-02-12T01:00:45;96340.88;;;1.96;79.59
47636;BME280;33364;50.766;15.338;2023-02-12T01:03:11;96347.94;;;1.95;79.68
47636;BME280;33364;50.766;15.338;2023-02-12T01:05:36;96346.13;;;1.96;79.36
47636;BME280;33364;50.766;15.338;2023-02-12T01:08:03;96350.91;;;2.00;80.30
47636;BME280;33364;50.766;15.338;2023-02-12T01:10:29;96348.91;;;1.94;79.16
47636;BME280;33364;50.766;15.338;2023-02-12T01:12:56;96352.50;;;1.93;80.16
47636;BME280;33364;50.766;15.338;2023-02-12T01:15:22;96360.38;;;1.93;79.98
47636;BME280;33364;50.766;15.338;2023-02-12T01:17:50;96357.59;;;1.95;80.03
47636;BME280;33364;50.766;15.338;2023-02-12T01:20:18;96356.03;;;2.10;80.20
47636;BME280;33364;50.766;15.338;2023-02-12T01:22:45;96352.28;;;2.13;80.57
47636;BME280;33364;50.766;15.338;2023-02-12T01:25:10;96344.19;;;2.32;82.21
47636;BME280;33364;50.766;15.338;2023-02-12T01:27:36;96343.38;;;2.40;82.30
47636;BME280;33364;50.766;15.338;2023-02-12T01:30:03;96342.03;;;2.28;79.28
47636;BME280;33364;50.766;15.338;2023-02-12T01:32:29;96349.63;;;2.05;77.57
47636;BME280;33364;50.766;15.338;2023-02-12T01:34:55;96357.75;;;1.93;79.37
47636;BME280;33364;50.766;15.338;2023-02-12T01:37:21;96358.38;;;1.87;79.99
47636;BME280;33364;50.766;15.338;2023-02-12T01:39:46;96367.19;;;1.86;79.53
47636;BME280;33364;50.766;15.338;2023-02-12T01:42:14;96361.28;;;1.84;80.20
47636;BME280;33364;50.766;15.338;2023-02-12T01:45:17;96358.06;;;1.90;80.14
47636;BME280;33364;50.766;15.338;2023-02-12T01:47:31;96362.00;;;1.94;79.77
47636;BME280;33364;50.766;15.338;2023-02-12T01:49:56;96365.78;;;1.92;79.35
47636;BME280;33364;50.766;15.338;2023-02-12T01:52:31;96367.03;;;1.88;79.65
47636;BME280;33364;50.766;15.338;2023-02-12T01:55:01;96365.97;;;1.98;80.94
47636;BME280;33364;50.766;15.338;2023-02-12T01:57:31;96376.81;;;2.04;80.75
47636;BME280;33364;50.766;15.338;2023-02-12T02:00:00;96374.19;;;2.04;79.86
47636;BME280;33364;50.766;15.338;2023-02-12T02:02:29;96366.59;;;1.92;79.30
47636;BME280;33364;50.766;15.338;2023-02-12T02:04:58;96369.34;;;1.91;79.23
47636;BME280;33364;50.766;15.338;2023-02-12T02:07:25;96369.88;;;1.94;78.94
47636;BME280;33364;50.766;15.338;2023-02-12T02:09:51;96372.63;;;1.93;79.28
47636;BME280;33364;50.766;15.338;2023-02-12T02:12:17;96375.50;;;1.99;80.76
47636;BME280;33364;50.766;15.338;2023-02-12T02:15:03;96374.19;;;2.04;79.37
47636;BME280;33364;50.766;15.338;2023-02-12T02:17:51;96379.31;;;2.13;79.70
47636;BME280;33364;50.766;15.338;2023-02-12T02:29:13;96376.16;;;2.01;78.45
47636;BME280;33364;50.766;15.338;2023-02-12T02:32:07;96394.81;;;1.98;79.50
47636;BME280;33364;50.766;15.338;2023-02-12T02:34:43;96396.06;;;1.94;79.02
47636;BME280;33364;50.766;15.338;2023-02-12T02:37:35;96402.38;;;2.01;79.18
47636;BME280;33364;50.766;15.338;2023-02-12T02:40:13;96404.09;;;1.93;78.60
47636;BME280;33364;50.766;15.338;2023-02-12T02:45:28;96408.97;;;1.88;79.42
47636;BME280;33364;50.766;15.338;2023-02-12T02:48:23;96407.81;;;1.82;78.79
47636;BME280;33364;50.766;15.338;2023-02-12T02:51:01;96405.53;;;1.87;79.88
47636;BME280;33364;50.766;15.338;2023-02-12T02:53:31;96404.09;;;1.93;78.77
47636;BME280;33364;50.766;15.338;2023-02-12T02:56:01;96411.56;;;2.06;79.55
47636;BME280;33364;50.766;15.338;2023-02-12T02:58:33;96404.16;;;2.01;78.40
47636;BME280;33364;50.766;15.338;2023-02-12T03:01:07;96406.41;;;1.96;79.07
47636;BME280;33364;50.766;15.338;2023-02-12T03:06:44;96404.31;;;1.99;80.12
47636;BME280;33364;50.766;15.338;2023-02-12T03:09:17;96406.31;;;2.06;80.08
47636;BME280;33364;50.766;15.338;2023-02-12T03:11:45;96405.66;;;2.04;79.52
47636;BME280;33364;50.766;15.338;2023-02-12T03:14:15;96403.47;;;1.99;80.33
47636;BME280;33364;50.766;15.338;2023-02-12T03:19:24;96416.84;;;1.88;78.83
47636;BME280;33364;50.766;15.338;2023-02-12T03:22:02;96431.31;;;1.92;79.17
47636;BME280;33364;50.766;15.338;2023-02-12T03:25:12;96432.72;;;1.86;78.59
47636;BME280;33364;50.766;15.338;2023-02-12T03:27:33;96439.06;;;2.01;82.04
47636;BME280;33364;50.766;15.338;2023-02-12T03:30:02;96436.53;;;1.92;78.44
47636;BME280;33364;50.766;15.338;2023-02-12T03:32:29;96438.81;;;1.87;79.22
47636;BME280;33364;50.766;15.338;2023-02-12T03:35:04;96447.44;;;1.79;80.13
47636;BME280;33364;50.766;15.338;2023-02-12T03:40:36;96450.78;;;1.89;79.74
47636;BME280;33364;50.766;15.338;2023-02-12T03:43:18;96453.63;;;1.78;79.04
47636;BME280;33364;50.766;15.338;2023-02-12T03:48:58;96451.06;;;1.86;79.24
47636;BME280;33364;50.766;15.338;2023-02-12T03:51:36;96457.66;;;1.90;78.97
47636;BME280;33364;50.766;15.338;2023-02-12T03:54:03;96461.09;;;1.91;78.15
47636;BME280;33364;50.766;15.338;2023-02-12T03:59:05;96467.50;;;1.88;79.15
47636;BME280;33364;50.766;15.338;2023-02-12T04:01:32;96471.13;;;1.95;79.43
47636;BME280;33364;50.766;15.338;2023-02-12T04:04:03;96478.34;;;1.93;78.74
47636;BME280;33364;50.766;15.338;2023-02-12T04:06:29;96488.50;;;1.96;78.68
47636;BME280;33364;50.766;15.338;2023-02-12T04:08:58;96487.66;;;1.96;78.59
47636;BME280;33364;50.766;15.338;2023-02-12T04:11:30;96490.38;;;1.86;78.61
47636;BME280;33364;50.766;15.338;2023-02-12T04:14:19;96490.22;;;1.88;79.33
47636;BME280;33364;50.766;15.338;2023-02-12T04:16:56;96486.13;;;1.85;80.38
47636;BME280;33364;50.766;15.338;2023-02-12T04:25:20;96499.09;;;1.69;80.39
47636;BME280;33364;50.766;15.338;2023-02-12T04:31:01;96501.25;;;1.73;80.59
47636;BME280;33364;50.766;15.338;2023-02-12T04:33:34;96513.22;;;1.94;80.99
47636;BME280;33364;50.766;15.338;2023-02-12T04:36:18;96500.78;;;1.96;79.70
47636;BME280;33364;50.766;15.338;2023-02-12T04:38:50;96505.59;;;1.82;79.76
47636;BME280;33364;50.766;15.338;2023-02-12T04:41:18;96508.88;;;1.84;79.70
47636;BME280;33364;50.766;15.338;2023-02-12T04:43:44;96506.41;;;1.83;79.33
47636;BME280;33364;50.766;15.338;2023-02-12T04:46:10;96511.81;;;1.81;79.25
47636;BME280;33364;50.766;15.338;2023-02-12T04:48:45;96507.25;;;1.83;79.58
47636;BME280;33364;50.766;15.338;2023-02-12T04:51:14;96513.81;;;1.88;80.06
47636;BME280;33364;50.766;15.338;2023-02-12T04:53:40;96519.22;;;1.86;79.21
47636;BME280;33364;50.766;15.338;2023-02-12T04:56:10;96519.97;;;1.96;80.27
47636;BME280;33364;50.766;15.338;2023-02-12T04:58:35;96520.25;;;2.11;80.71
47636;BME280;33364;50.766;15.338;2023-02-12T05:01:02;96526.75;;;2.07;78.81
47636;BME280;33364;50.766;15.338;2023-02-12T05:03:27;96524.06;;;1.99;79.07
47636;BME280;33364;50.766;15.338;2023-02-12T05:05:53;96531.28;;;1.97;78.94
47636;BME280;33364;50.766;15.338;2023-02-12T05:08:19;96526.84;;;1.97;79.61
47636;BME280;33364;50.766;15.338;2023-02-12T05:10:45;96534.78;;;2.06;79.66
47636;BME280;33364;50.766;15.338;2023-02-12T05:13:10;96528.94;;;1.94;78.29
47636;BME280;33364;50.766;15.338;2023-02-12T05:15:39;96529.25;;;1.91;79.61
47636;BME280;33364;50.766;15.338;2023-02-12T05:18:05;96525.44;;;2.03;80.15
47636;BME280;33364;50.766;15.338;2023-02-12T05:20:31;96525.13;;;2.06;79.49
47636;BME280;33364;50.766;15.338;2023-02-12T05:22:56;96534.78;;;2.06;79.40
47636;BME280;33364;50.766;15.338;2023-02-12T05:25:22;96532.09;;;1.97;78.45
47636;BME280;33364;50.766;15.338;2023-02-12T05:27:48;96534.41;;;2.00;79.35
47636;BME280;33364;50.766;15.338;2023-02-12T05:30:14;96532.16;;;2.06;79.88
47636;BME280;33364;50.766;15.338;2023-02-12T05:32:39;96536.50;;;2.15;80.23
47636;BME280;33364;50.766;15.338;2023-02-12T05:35:05;96534.69;;;2.15;79.54
47636;BME280;33364;50.766;15.338;2023-02-12T05:37:34;96543.00;;;2.11;79.99
47636;BME280;33364;50.766;15.338;2023-02-12T05:40:03;96542.47;;;2.25;81.12
47636;BME280;33364;50.766;15.338;2023-02-12T05:42:29;96544.06;;;2.18;79.27
47636;BME280;33364;50.766;15.338;2023-02-12T05:44:54;96545.69;;;2.19;79.51
47636;BME280;33364;50.766;15.338;2023-02-12T05:47:20;96555.56;;;2.25;78.89
47636;BME280;33364;50.766;15.338;2023-02-12T05:49:46;96544.28;;;2.25;79.04
47636;BME280;33364;50.766;15.338;2023-02-12T05:52:12;96546.09;;;2.24;79.19
47636;BME280;33364;50.766;15.338;2023-02-12T05:54:38;96558.81;;;2.19;78.92
47636;BME280;33364;50.766;15.338;2023-02-12T05:57:05;96563.00;;;2.12;78.75
47636;BME280;33364;50.766;15.338;2023-02-12T05:59:31;96569.38;;;1.91;78.38
47636;BME280;33364;50.766;15.338;2023-02-12T06:01:58;96569.78;;;1.96;80.29
47636;BME280;33364;50.766;15.338;2023-02-12T06:04:27;96571.63;;;2.04;79.43
47636;BME280;33364;50.766;15.338;2023-02-12T06:06:54;96572.09;;;1.99;79.12
47636;BME280;33364;50.766;15.338;2023-02-12T06:09:20;96568.03;;;2.05;79.15
47636;BME280;33364;50.766;15.338;2023-02-12T06:11:47;96577.56;;;2.06;78.62
47636;BME280;33364;50.766;15.338;2023-02-12T06:14:15;96573.66;;;2.10;78.70
47636;BME280;33364;50.766;15.338;2023-02-12T06:16:46;96581.97;;;2.06;77.89
47636;BME280;33364;50.766;15.338;2023-02-12T06:19:13;96584.53;;;1.97;78.34
47636;BME280;33364;50.766;15.338;2023-02-12T06:21:39;96586.19;;;1.98;78.41
47636;BME280;33364;50.766;15.338;2023-02-12T06:24:05;96599.13;;;2.00;78.50
47636;BME280;33364;50.766;15.338;2023-02-12T06:26:31;96600.63;;;2.02;78.78
47636;BME280;33364;50.766;15.338;2023-02-12T06:28:57;96602.72;;;1.99;79.52
47636;BME280;33364;50.766;15.338;2023-02-12T06:31:28;96604.81;;;2.13;80.55
47636;BME280;33364;50.766;15.338;2023-02-12T06:33:57;96606.47;;;2.14;78.85
47636;BME280;33364;50.766;15.338;2023-02-12T06:36:23;96602.66;;;2.09;77.86
47636;BME280;33364;50.766;15.338;2023-02-12T06:38:50;96611.19;;;2.11;78.29
47636;BME280;33364;50.766;15.338;2023-02-12T06:41:16;96612.31;;;2.08;78.10
47636;BME280;33364;50.766;15.338;2023-02-12T06:43:42;96615.47;;;1.94;78.47
47636;BME280;33364;50.766;15.338;2023-02-12T06:46:08;96623.03;;;1.97;78.75
47636;BME280;33364;50.766;15.338;2023-02-12T06:48:34;96623.41;;;2.02;79.00
47636;BME280;33364;50.766;15.338;2023-02-12T06:51:08;96631.72;;;2.15;80.54
47636;BME280;33364;50.766;15.338;2023-02-12T06:53:34;96629.47;;;2.20;79.05
47636;BME280;33364;50.766;15.338;2023-02-12T06:56:01;96635.03;;;2.17;78.37
47636;BME280;33364;50.766;15.338;2023-02-12T06:58:28;96629.47;;;2.20;78.58
47636;BME280;33364;50.766;15.338;2023-02-12T07:00:53;96642.41;;;2.22;78.47
47636;BME280;33364;50.766;15.338;2023-02-12T07:03:19;96638.47;;;2.18;78.22
47636;BME280;33364;50.766;15.338;2023-02-12T07:05:45;96637.47;;;2.19;78.46
47636;BME280;33364;50.766;15.338;2023-02-12T07:08:14;96636.81;;;2.17;78.35
47636;BME280;33364;50.766;15.338;2023-02-12T07:10:39;96645.03;;;2.22;78.29
47636;BME280;33364;50.766;15.338;2023-02-12T07:13:05;96650.22;;;2.32;78.83
47636;BME280;33364;50.766;15.338;2023-02-12T07:15:31;96659.06;;;2.31;78.08
47636;BME280;33364;50.766;15.338;2023-02-12T07:17:57;96652.69;;;2.33;78.35
47636;BME280;33364;50.766;15.338;2023-02-12T07:20:22;96660.13;;;2.38;79.03
47636;BME280;33364;50.766;15.338;2023-02-12T07:22:48;96664.06;;;2.60;80.34
47636;BME280;33364;50.766;15.338;2023-02-12T07:25:14;96660.09;;;2.56;78.19
47636;BME280;33364;50.766;15.338;2023-02-12T07:27:40;96665.44;;;2.46;77.06
47636;BME280;33364;50.766;15.338;2023-02-12T07:30:06;96668.66;;;2.40;77.99
47636;BME280;33364;50.766;15.338;2023-02-12T07:32:33;96677.00;;;2.35;78.50
47636;BME280;33364;50.766;15.338;2023-02-12T07:34:59;96673.75;;;2.42;79.25
47636;BME280;33364;50.766;15.338;2023-02-12T07:37:25;96678.25;;;2.49;78.59
47636;BME280;33364;50.766;15.338;2023-02-12T07:39:50;96677.13;;;2.52;78.43
47636;BME280;33364;50.766;15.338;2023-02-12T07:42:17;96681.81;;;2.66;78.61
47636;BME280;33364;50.766;15.338;2023-02-12T07:44:43;96674.69;;;2.77;78.07
47636;BME280;33364;50.766;15.338;2023-02-12T07:47:10;96670.28;;;3.03;79.86
47636;BME280;33364;50.766;15.338;2023-02-12T07:49:35;96675.53;;;3.29;80.36
47636;BME280;33364;50.766;15.338;2023-02-12T07:52:07;96678.84;;;3.40;78.42
47636;BME280;33364;50.766;15.338;2023-02-12T07:54:34;96690.81;;;3.34;77.29
47636;BME280;33364;50.766;15.338;2023-02-12T07:57:00;96682.25;;;3.24;77.73
47636;BME280;33364;50.766;15.338;2023-02-12T07:59:26;96682.75;;;3.27;77.59
47636;BME280;33364;50.766;15.338;2023-02-12T08:01:53;96684.16;;;3.48;79.85
47636;BME280;33364;50.766;15.338;2023-02-12T08:04:21;96681.72;;;3.55;76.80
47636;BME280;33364;50.766;15.338;2023-02-12T08:06:50;96683.66;;;3.44;76.98
47636;BME280;33364;50.766;15.338;2023-02-12T08:09:27;96686.06;;;3.38;76.67
47636;BME280;33364;50.766;15.338;2023-02-12T08:11:55;96686.53;;;3.33;77.41
47636;BME280;33364;50.766;15.338;2023-02-12T08:14:21;96688.41;;;3.41;77.20
47636;BME280;33364;50.766;15.338;2023-02-12T08:16:48;96689.66;;;3.37;76.90
47636;BME280;33364;50.766;15.338;2023-02-12T08:19:15;96694.09;;;3.36;76.03
47636;BME280;33364;50.766;15.338;2023-02-12T08:21:41;96699.53;;;3.35;77.51
47636;BME280;33364;50.766;15.338;2023-02-12T08:24:08;96697.25;;;3.40;77.02
47636;BME280;33364;50.766;15.338;2023-02-12T08:26:36;96701.94;;;3.54;76.94
47636;BME280;33364;50.766;15.338;2023-02-12T08:29:23;96705.38;;;3.55;76.68
47636;BME280;33364;50.766;15.338;2023-02-12T08:31:55;96697.81;;;3.52;76.49
47636;BME280;33364;50.766;15.338;2023-02-12T08:34:23;96701.25;;;3.52;76.06
47636;BME280;33364;50.766;15.338;2023-02-12T08:36:51;96701.81;;;3.64;76.80
47636;BME280;33364;50.766;15.338;2023-02-12T08:39:20;96700.44;;;3.52;75.19
47636;BME280;33364;50.766;15.338;2023-02-12T08:41:47;96694.59;;;3.74;78.32
47636;BME280;33364;50.766;15.338;2023-02-12T08:44:14;96698.16;;;3.91;77.37
47636;BME280;33364;50.766;15.338;2023-02-12T08:46:44;96703.59;;;3.98;76.54
47636;BME280;33364;50.766;15.338;2023-02-12T08:49:19;96708.19;;;3.96;75.97
47636;BME280;33364;50.766;15.338;2023-02-12T08:51:48;96719.84;;;3.93;76.03
47636;BME280;33364;50.766;15.338;2023-02-12T08:54:25;96717.69;;;3.89;76.17
47636;BME280;33364;50.766;15.338;2023-02-12T08:56:56;96716.56;;;3.91;75.66
47636;BME280;33364;50.766;15.338;2023-02-12T08:59:23;96718.09;;;4.18;76.64
47636;BME280;33364;50.766;15.338;2023-02-12T09:01:50;96721.41;;;4.20;75.71
47636;BME280;33364;50.766;15.338;2023-02-12T09:04:19;96730.28;;;4.19;76.04
47636;BME280;33364;50.766;15.338;2023-02-12T09:06:46;96735.53;;;4.11;74.20
47636;BME280;33364;50.766;15.338;2023-02-12T09:09:12;96733.03;;;4.01;74.98
47636;BME280;33364;50.766;15.338;2023-02-12T09:11:38;96738.13;;;4.03;74.55
47636;BME280;33364;50.766;15.338;2023-02-12T09:14:06;96742.41;;;4.04;74.73
47636;BME280;33364;50.766;15.338;2023-02-12T09:16:33;96741.59;;;4.12;75.92
47636;BME280;33364;50.766;15.338;2023-02-12T09:18:59;96743.50;;;4.44;75.72
47636;BME280;33364;50.766;15.338;2023-02-12T09:21:26;96743.84;;;4.57;75.33
47636;BME280;33364;50.766;15.338;2023-02-12T09:23:52;96753.22;;;4.44;74.90
47636;BME280;33364;50.766;15.338;2023-02-12T09:26:21;96756.13;;;4.32;74.77
47636;BME280;33364;50.766;15.338;2023-02-12T09:28:48;96755.50;;;4.38;74.41
47636;BME280;33364;50.766;15.338;2023-02-12T09:31:20;96763.56;;;4.37;74.56
47636;BME280;33364;50.766;15.338;2023-02-12T09:33:47;96762.38;;;4.31;74.77
47636;BME280;33364;50.766;15.338;2023-02-12T09:36:15;96771.63;;;4.35;75.49
47636;BME280;33364;50.766;15.338;2023-02-12T09:38:42;96770.81;;;4.35;75.11
47636;BME280;33364;50.766;15.338;2023-02-12T09:49:10;96784.63;;;4.37;74.95
47636;BME280;33364;50.766;15.338;2023-02-12T09:51:43;96786.63;;;4.43;74.71
47636;BME280;33364;50.766;15.338;2023-02-12T09:54:14;96780.66;;;4.41;74.26
47636;BME280;33364;50.766;15.338;2023-02-12T09:56:45;96780.03;;;4.47;74.89
47636;BME280;33364;50.766;15.338;2023-02-12T09:59:19;96776.25;;;4.50;75.01
47636;BME280;33364;50.766;15.338;2023-02-12T10:01:48;96776.13;;;4.59;74.29
47636;BME280;33364;50.766;15.338;2023-02-12T10:04:14;96777.06;;;4.50;74.14
47636;BME280;33364;50.766;15.338;2023-02-12T10:09:38;96780.66;;;4.41;74.72
47636;BME280;33364;50.766;15.338;2023-02-12T10:17:43;96779.63;;;4.26;75.87
47636;BME280;33364;50.766;15.338;2023-02-12T10:26:35;96776.69;;;4.29;74.42
47636;BME280;33364;50.766;15.338;2023-02-12T10:29:16;96772.75;;;4.33;75.15
47636;BME280;33364;50.766;15.338;2023-02-12T10:31:45;96778.69;;;4.35;75.04
47636;BME280;33364;50.766;15.338;2023-02-12T10:34:25;96779.84;;;4.40;76.26
47636;BME280;33364;50.766;15.338;2023-02-12T10:36:54;96788.25;;;4.44;75.35
47636;BME280;33364;50.766;15.338;2023-02-12T10:39:28;96781.69;;;4.48;75.58
47636;BME280;33364;50.766;15.338;2023-02-12T10:42:12;96781.53;;;4.58;75.28
47636;BME280;33364;50.766;15.338;2023-02-12T10:44:39;96782.03;;;4.62;74.88
47636;BME280;33364;50.766;15.338;2023-02-12T10:47:05;96777.72;;;4.52;75.01
47636;BME280;33364;50.766;15.338;2023-02-12T10:49:35;96779.72;;;4.50;74.91
47636;BME280;33364;50.766;15.338;2023-02-12T10:52:07;96779.69;;;4.42;73.98
47636;BME280;33364;50.766;15.338;2023-02-12T10:54:37;96784.78;;;4.35;75.06
47636;BME280;33364;50.766;15.338;2023-02-12T10:57:07;96778.19;;;4.39;75.46
47636;BME280;33364;50.766;15.338;2023-02-12T10:59:34;96781.50;;;4.41;74.98
47636;BME280;33364;50.766;15.338;2023-02-12T11:02:00;96786.47;;;4.45;74.50
47636;BME280;33364;50.766;15.338;2023-02-12T11:04:29;96789.91;;;4.45;74.33
47636;BME280;33364;50.766;15.338;2023-02-12T11:07:06;96782.31;;;4.42;76.27
47636;BME280;33364;50.766;15.338;2023-02-12T11:09:42;96784.31;;;4.48;74.70
47636;BME280;33364;50.766;15.338;2023-02-12T11:12:43;96782.53;;;4.65;73.87
47636;BME280;33364;50.766;15.338;2023-02-12T11:15:15;96779.25;;;4.63;73.34
47636;BME280;33364;50.766;15.338;2023-02-12T11:17:44;96784.03;;;4.68;73.59
47636;BME280;33364;50.766;15.338;2023-02-12T11:22:55;96777.41;;;4.47;74.42
47636;BME280;33364;50.766;15.338;2023-02-12T11:25:24;96780.53;;;4.59;73.83
47636;BME280;33364;50.766;15.338;2023-02-12T11:28:09;96786.34;;;4.63;73.07
47636;BME280;33364;50.766;15.338;2023-02-12T11:36:44;96776.31;;;4.74;73.89
47636;BME280;33364;50.766;15.338;2023-02-12T11:39:29;96768.09;;;4.86;72.76
47636;BME280;33364;50.766;15.338;2023-02-12T11:44:33;96769.88;;;4.93;72.87
47636;BME280;33364;50.766;15.338;2023-02-12T11:47:06;96767.09;;;4.95;72.56
47636;BME280;33364;50.766;15.338;2023-02-12T11:49:37;96767.56;;;4.90;72.77
47636;BME280;33364;50.766;15.338;2023-02-12T11:52:05;96772.88;;;5.07;72.78
47636;BME280;33364;50.766;15.338;2023-02-12T11:54:41;96772.03;;;5.14;72.62
47636;BME280;33364;50.766;15.338;2023-02-12T12:00:04;96772.88;;;5.31;72.03
47636;BME280;33364;50.766;15.338;2023-02-12T12:02:38;96774.16;;;5.36;71.76
47636;BME280;33364;50.766;15.338;2023-02-12T12:05:12;96773.19;;;5.28;71.01
47636;BME280;33364;50.766;15.338;2023-02-12T12:07:44;96768.91;;;5.19;71.34
47636;BME280;33364;50.766;15.338;2023-02-12T12:10:28;96768.25;;;5.17;71.70
47636;BME280;33364;50.766;15.338;2023-02-12T12:13:01;96771.06;;;5.15;71.47
47636;BME280;33364;50.766;15.338;2023-02-12T12:15:35;96771.56;;;5.11;71.58
47636;BME280;33364;50.766;15.338;2023-02-12T12:21:35;96764.63;;;5.10;71.36
47636;BME280;33364;50.766;15.338;2023-02-12T12:30:22;96763.47;;;4.80;73.03
47636;BME280;33364;50.766;15.338;2023-02-12T12:32:51;96765.59;;;4.68;71.83
47636;BME280;33364;50.766;15.338;2023-02-12T12:35:24;96766.53;;;4.50;72.37
47636;BME280;33364;50.766;15.338;2023-02-12T12:38:07;96766.53;;;4.42;74.30
47636;BME280;33364;50.766;15.338;2023-02-12T12:47:14;96756.53;;;4.62;73.71
47636;BME280;33364;50.766;15.338;2023-02-12T13:06:41;96734.94;;;4.34;73.13
47636;BME280;33364;50.766;15.338;2023-02-12T13:12:37;96742.00;;;4.25;73.76
47636;BME280;33364;50.766;15.338;2023-02-12T13:15:33;96741.78;;;4.18;73.44
47636;BME280;33364;50.766;15.338;2023-02-12T13:23:58;96746.66;;;4.05;74.38
47636;BME280;33364;50.766;15.338;2023-02-12T13:26:46;96740.25;;;3.99;73.40
47636;BME280;33364;50.766;15.338;2023-02-12T13:29:22;96745.31;;;3.93;73.52
47636;BME280;33364;50.766;15.338;2023-02-12T13:34:53;96754.50;;;3.89;73.86
47636;BME280;33364;50.766;15.338;2023-02-12T13:37:34;96755.34;;;3.89;74.51
47636;BME280;33364;50.766;15.338;2023-02-12T13:40:03;96766.56;;;3.99;74.36
47636;BME280;33364;50.766;15.338;2023-02-12T13:53:11;96763.94;;;3.65;74.52
47636;BME280;33364;50.766;15.338;2023-02-12T14:01:10;96760.91;;;3.86;74.78
47636;BME280;33364;50.766;15.338;2023-02-12T14:03:37;96765.56;;;3.66;76.03
47636;BME280;33364;50.766;15.338;2023-02-12T14:06:20;96769.88;;;3.75;76.00
47636;BME280;33364;50.766;15.338;2023-02-12T14:08:50;96774.03;;;3.78;75.18
47636;BME280;33364;50.766;15.338;2023-02-12T14:11:22;96761.44;;;3.63;74.63
47636;BME280;33364;50.766;15.338;2023-02-12T14:13:59;96765.63;;;3.48;74.81
47636;BME280;33364;50.766;15.338;2023-02-12T14:21:58;96770.25;;;3.54;75.24
47636;BME280;33364;50.766;15.338;2023-02-12T14:27:33;96770.00;;;3.65;75.53
47636;BME280;33364;50.766;15.338;2023-02-12T14:37:59;96762.25;;;3.64;74.61
47636;BME280;33364;50.766;15.338;2023-02-12T14:42:57;96773.44;;;3.66;74.93
47636;BME280;33364;50.766;15.338;2023-02-12T14:45:32;96780.81;;;3.62;74.56
47636;BME280;33364;50.766;15.338;2023-02-12T14:47:58;96775.56;;;3.62;74.60
47636;BME280;33364;50.766;15.338;2023-02-12T14:50:29;96767.63;;;3.54;74.52
47636;BME280;33364;50.766;15.338;2023-02-12T14:53:03;96761.88;;;3.51;75.09
47636;BME280;33364;50.766;15.338;2023-02-12T14:55:32;96769.91;;;3.49;75.71
47636;BME280;33364;50.766;15.338;2023-02-12T14:58:02;96769.75;;;3.51;75.61
47636;BME280;33364;50.766;15.338;2023-02-12T15:00:38;96767.06;;;3.42;75.04
47636;BME280;33364;50.766;15.338;2023-02-12T15:05:46;96766.41;;;3.40;75.40
47636;BME280;33364;50.766;15.338;2023-02-12T15:11:11;96776.03;;;3.31;75.89
47636;BME280;33364;50.766;15.338;2023-02-12T15:13:47;96775.16;;;3.23;76.05
47636;BME280;33364;50.766;15.338;2023-02-12T15:16:19;96776.41;;;3.19;75.89
47636;BME280;33364;50.766;15.338;2023-02-12T15:21:41;96777.41;;;3.18;75.58
47636;BME280;33364;50.766;15.338;2023-02-12T15:24:09;96786.56;;;3.13;75.58
47636;BME280;33364;50.766;15.338;2023-02-12T15:26:39;96778.63;;;3.05;75.56
47636;BME280;33364;50.766;15.338;2023-02-12T15:29:13;96775.22;;;3.13;76.28
47636;BME280;33364;50.766;15.338;2023-02-12T15:31:41;96778.00;;;3.11;75.29
47636;BME280;33364;50.766;15.338;2023-02-12T15:34:13;96778.47;;;3.07;76.25
47636;BME280;33364;50.766;15.338;2023-02-12T15:36:43;96773.06;;;3.08;76.72
47636;BME280;33364;50.766;15.338;2023-02-12T15:39:19;96759.72;;;2.84;75.51
47636;BME280;33364;50.766;15.338;2023-02-12T15:41:47;96767.81;;;2.90;77.36
47636;BME280;33364;50.766;15.338;2023-02-12T15:46:56;96763.31;;;2.83;76.89
47636;BME280;33364;50.766;15.338;2023-02-12T15:49:31;96766.94;;;2.82;76.89
47636;BME280;33364;50.766;15.338;2023-02-12T15:51:59;96770.59;;;2.89;77.35
47636;BME280;33364;50.766;15.338;2023-02-12T15:54:26;96778.34;;;2.90;76.00
47636;BME280;33364;50.766;15.338;2023-02-12T15:56:53;96775.78;;;2.81;76.46
47636;BME280;33364;50.766;15.338;2023-02-12T15:59:22;96777.75;;;2.79;76.67